sensor_id;sensor_type;location;lat;lon;timestamp;temperature;humidity
28087;DHT22;15392;48.912;8.380;2022-08-14T00:00:15;28.00;26.60
28087;DHT22;15392;48.912;8.380;2022-08-14T00:02:42;27.90;26.70
28087;DHT22;15392;48.912;8.380;2022-08-14T00:05:12;27.80;26.50
28087;DHT22;15392;48.912;8.380;2022-08-14T00:07:39;27.80;26.60
28087;DHT22;15392;48.912;8.380;2022-08-14T00:10:07;27.70;27.10
28087;DHT22;15392;48.912;8.380;2022-08-14T00:12:38;27.60;26.70
28087;DHT22;15392;48.912;8.380;2022-08-14T00:15:14;27.50;26.80
28087;DHT22;15392;48.912;8.380;2022-08-14T00:17:44;27.50;27.10
28087;DHT22;15392;48.912;8.380;2022-08-14T00:20:10;27.40;26.80
28087;DHT22;15392;48.912;8.380;2022-08-14T00:22:37;27.40;26.80
28087;DHT22;15392;48.912;8.380;2022-08-14T00:25:04;27.30;26.90
28087;DHT22;15392;48.912;8.380;2022-08-14T00:27:32;27.30;26.90
28087;DHT22;15392;48.912;8.380;2022-08-14T00:29:57;27.30;26.90
28087;DHT22;15392;48.912;8.380;2022-08-14T00:32:23;27.20;26.90
28087;DHT22;15392;48.912;8.380;2022-08-14T00:34:49;27.20;27.00
28087;DHT22;15392;48.912;8.380;2022-08-14T00:37:15;27.20;27.10
28087;DHT22;15392;48.912;8.380;2022-08-14T00:39:40;27.10;27.00
28087;DHT22;15392;48.912;8.380;2022-08-14T00:42:06;27.10;27.00
28087;DHT22;15392;48.912;8.380;2022-08-14T00:44:32;27.00;27.00
28087;DHT22;15392;48.912;8.380;2022-08-14T00:47:02;26.90;27.50
28087;DHT22;15392;48.912;8.380;2022-08-14T00:49:33;26.90;27.10
28087;DHT22;15392;48.912;8.380;2022-08-14T00:51:59;26.80;27.10
28087;DHT22;15392;48.912;8.380;2022-08-14T00:54:25;26.80;27.20
28087;DHT22;15392;48.912;8.380;2022-08-14T00:56:52;26.80;27.30
28087;DHT22;15392;48.912;8.380;2022-08-14T00:59:18;26.70;27.20
28087;DHT22;15392;48.912;8.380;2022-08-14T01:01:44;26.60;27.30
28087;DHT22;15392;48.912;8.380;2022-08-14T01:04:11;26.60;27.30
28087;DHT22;15392;48.912;8.380;2022-08-14T01:06:38;26.50;27.30
28087;DHT22;15392;48.912;8.380;2022-08-14T01:09:04;26.50;27.40
28087;DHT22;15392;48.912;8.380;2022-08-14T01:11:30;26.40;27.40
28087;DHT22;15392;48.912;8.380;2022-08-14T01:13:56;26.30;27.50
28087;DHT22;15392;48.912;8.380;2022-08-14T01:16:26;26.30;27.60
28087;DHT22;15392;48.912;8.380;2022-08-14T01:18:52;26.20;27.70
28087;DHT22;15392;48.912;8.380;2022-08-14T01:21:39;26.20;27.70
28087;DHT22;15392;48.912;8.380;2022-08-14T01:24:06;26.10;27.70
28087;DHT22;15392;48.912;8.380;2022-08-14T01:26:34;26.10;27.80
28087;DHT22;15392;48.912;8.380;2022-08-14T01:29:00;26.00;27.70
28087;DHT22;15392;48.912;8.380;2022-08-14T01:31:32;25.90;27.80
28087;DHT22;15392;48.912;8.380;2022-08-14T01:34:03;25.90;27.90
28087;DHT22;15392;48.912;8.380;2022-08-14T01:36:30;25.90;28.00
28087;DHT22;15392;48.912;8.380;2022-08-14T01:39:13;25.90;27.90
28087;DHT22;15392;48.912;8.380;2022-08-14T01:41:44;25.80;28.50
28087;DHT22;15392;48.912;8.380;2022-08-14T01:44:15;25.80;28.00
28087;DHT22;15392;48.912;8.380;2022-08-14T01:46:43;25.90;28.10
28087;DHT22;15392;48.912;8.380;2022-08-14T01:49:12;25.80;28.10
28087;DHT22;15392;48.912;8.380;2022-08-14T01:51:40;25.80;28.10
28087;DHT22;15392;48.912;8.380;2022-08-14T01:54:10;25.70;28.10
28087;DHT22;15392;48.912;8.380;2022-08-14T01:56:42;25.70;28.10
28087;DHT22;15392;48.912;8.380;2022-08-14T02:01:41;25.60;28.50
28087;DHT22;15392;48.912;8.380;2022-08-14T02:04:08;25.50;28.10
28087;DHT22;15392;48.912;8.380;2022-08-14T02:06:35;25.50;28.10
28087;DHT22;15392;48.912;8.380;2022-08-14T02:09:06;25.50;28.30
28087;DHT22;15392;48.912;8.380;2022-08-14T02:11:33;25.50;28.50
28087;DHT22;15392;48.912;8.380;2022-08-14T02:14:00;25.40;28.20
28087;DHT22;15392;48.912;8.380;2022-08-14T02:16:36;25.40;28.20
28087;DHT22;15392;48.912;8.380;2022-08-14T02:19:16;25.40;28.50
28087;DHT22;15392;48.912;8.380;2022-08-14T02:21:45;25.40;28.40
28087;DHT22;15392;48.912;8.380;2022-08-14T02:24:18;25.40;28.30
28087;DHT22;15392;48.912;8.380;2022-08-14T02:26:45;25.40;28.40
28087;DHT22;15392;48.912;8.380;2022-08-14T02:29:20;25.30;28.60
28087;DHT22;15392;48.912;8.380;2022-08-14T02:31:52;25.30;28.50
28087;DHT22;15392;48.912;8.380;2022-08-14T02:34:31;25.30;28.40
28087;DHT22;15392;48.912;8.380;2022-08-14T02:37:00;25.30;28.60
28087;DHT22;15392;48.912;8.380;2022-08-14T02:39:29;25.20;28.50
28087;DHT22;15392;48.912;8.380;2022-08-14T02:41:56;25.20;28.50
28087;DHT22;15392;48.912;8.380;2022-08-14T02:44:23;25.20;28.60
28087;DHT22;15392;48.912;8.380;2022-08-14T02:46:51;25.10;28.60
28087;DHT22;15392;48.912;8.380;2022-08-14T02:49:18;25.10;28.70
28087;DHT22;15392;48.912;8.380;2022-08-14T02:51:52;25.10;28.60
28087;DHT22;15392;48.912;8.380;2022-08-14T02:54:20;25.10;28.70
28087;DHT22;15392;48.912;8.380;2022-08-14T02:56:55;25.10;28.80
28087;DHT22;15392;48.912;8.380;2022-08-14T02:59:27;25.10;29.10
28087;DHT22;15392;48.912;8.380;2022-08-14T03:01:56;25.10;29.20
28087;DHT22;15392;48.912;8.380;2022-08-14T03:04:23;25.00;29.00
28087;DHT22;15392;48.912;8.380;2022-08-14T03:06:50;25.00;29.00
28087;DHT22;15392;48.912;8.380;2022-08-14T03:09:16;25.00;28.90
28087;DHT22;15392;48.912;8.380;2022-08-14T03:11:42;24.90;28.90
28087;DHT22;15392;48.912;8.380;2022-08-14T03:14:10;24.90;29.00
28087;DHT22;15392;48.912;8.380;2022-08-14T03:16:38;24.90;29.10
28087;DHT22;15392;48.912;8.380;2022-08-14T03:19:05;24.80;29.10
28087;DHT22;15392;48.912;8.380;2022-08-14T03:21:33;24.80;29.10
28087;DHT22;15392;48.912;8.380;2022-08-14T03:24:02;24.80;29.10
28087;DHT22;15392;48.912;8.380;2022-08-14T03:26:29;24.80;29.10
28087;DHT22;15392;48.912;8.380;2022-08-14T03:28:55;24.80;29.20
28087;DHT22;15392;48.912;8.380;2022-08-14T03:31:21;24.70;29.30
28087;DHT22;15392;48.912;8.380;2022-08-14T03:33:49;24.70;29.20
28087;DHT22;15392;48.912;8.380;2022-08-14T03:36:17;24.70;29.20
28087;DHT22;15392;48.912;8.380;2022-08-14T03:38:47;24.70;29.10
28087;DHT22;15392;48.912;8.380;2022-08-14T03:41:23;24.70;29.10
28087;DHT22;15392;48.912;8.380;2022-08-14T03:43:52;24.70;29.10
28087;DHT22;15392;48.912;8.380;2022-08-14T03:46:21;24.70;29.20
28087;DHT22;15392;48.912;8.380;2022-08-14T03:48:47;24.70;29.10
28087;DHT22;15392;48.912;8.380;2022-08-14T03:51:13;24.70;29.10
28087;DHT22;15392;48.912;8.380;2022-08-14T03:53:42;24.70;29.20
28087;DHT22;15392;48.912;8.380;2022-08-14T03:56:11;24.70;29.20
28087;DHT22;15392;48.912;8.380;2022-08-14T03:58:44;24.70;29.20
28087;DHT22;15392;48.912;8.380;2022-08-14T04:01:18;24.70;29.50
28087;DHT22;15392;48.912;8.380;2022-08-14T04:03:46;24.70;29.50
28087;DHT22;15392;48.912;8.380;2022-08-14T04:06:12;24.60;29.30
28087;DHT22;15392;48.912;8.380;2022-08-14T04:08:39;24.50;29.30
28087;DHT22;15392;48.912;8.380;2022-08-14T04:11:06;24.50;29.50
28087;DHT22;15392;48.912;8.380;2022-08-14T04:13:36;24.50;29.50
28087;DHT22;15392;48.912;8.380;2022-08-14T04:16:05;24.50;29.50
28087;DHT22;15392;48.912;8.380;2022-08-14T04:18:54;24.40;29.50
28087;DHT22;15392;48.912;8.380;2022-08-14T04:21:23;24.40;29.70
28087;DHT22;15392;48.912;8.380;2022-08-14T04:23:56;24.40;29.80
28087;DHT22;15392;48.912;8.380;2022-08-14T04:26:25;24.30;29.80
28087;DHT22;15392;48.912;8.380;2022-08-14T04:28:52;24.30;29.80
28087;DHT22;15392;48.912;8.380;2022-08-14T04:31:20;24.20;29.90
28087;DHT22;15392;48.912;8.380;2022-08-14T04:33:47;24.20;29.90
28087;DHT22;15392;48.912;8.380;2022-08-14T04:36:13;24.20;30.00
28087;DHT22;15392;48.912;8.380;2022-08-14T04:38:39;24.20;30.00
28087;DHT22;15392;48.912;8.380;2022-08-14T04:41:23;24.10;30.00
28087;DHT22;15392;48.912;8.380;2022-08-14T04:44:08;24.10;30.00
28087;DHT22;15392;48.912;8.380;2022-08-14T04:46:34;24.00;30.00
28087;DHT22;15392;48.912;8.380;2022-08-14T04:49:03;24.00;30.10
28087;DHT22;15392;48.912;8.380;2022-08-14T04:51:29;24.00;30.20
28087;DHT22;15392;48.912;8.380;2022-08-14T04:53:55;24.00;30.20
28087;DHT22;15392;48.912;8.380;2022-08-14T04:56:23;24.00;30.30
28087;DHT22;15392;48.912;8.380;2022-08-14T04:58:52;23.90;30.50
28087;DHT22;15392;48.912;8.380;2022-08-14T05:01:25;23.90;30.50
28087;DHT22;15392;48.912;8.380;2022-08-14T05:03:52;23.90;31.20
28087;DHT22;15392;48.912;8.380;2022-08-14T05:06:19;23.80;30.70
28087;DHT22;15392;48.912;8.380;2022-08-14T05:08:46;23.80;30.80
28087;DHT22;15392;48.912;8.380;2022-08-14T05:11:12;23.80;30.90
28087;DHT22;15392;48.912;8.380;2022-08-14T05:13:39;23.80;31.00
28087;DHT22;15392;48.912;8.380;2022-08-14T05:16:06;23.80;31.10
28087;DHT22;15392;48.912;8.380;2022-08-14T05:18:34;23.80;31.00
28087;DHT22;15392;48.912;8.380;2022-08-14T05:21:04;23.70;31.00
28087;DHT22;15392;48.912;8.380;2022-08-14T05:23:34;23.70;31.00
28087;DHT22;15392;48.912;8.380;2022-08-14T05:26:02;23.70;31.10
28087;DHT22;15392;48.912;8.380;2022-08-14T05:28:33;23.70;31.10
28087;DHT22;15392;48.912;8.380;2022-08-14T05:31:02;23.70;31.40
28087;DHT22;15392;48.912;8.380;2022-08-14T05:33:31;23.70;31.10
28087;DHT22;15392;48.912;8.380;2022-08-14T05:36:00;23.70;31.20
28087;DHT22;15392;48.912;8.380;2022-08-14T05:38:30;23.80;31.10
28087;DHT22;15392;48.912;8.380;2022-08-14T05:41:00;23.80;31.00
28087;DHT22;15392;48.912;8.380;2022-08-14T05:43:27;23.80;31.70
28087;DHT22;15392;48.912;8.380;2022-08-14T05:45:55;23.90;31.10
28087;DHT22;15392;48.912;8.380;2022-08-14T05:48:25;23.90;31.20
28087;DHT22;15392;48.912;8.380;2022-08-14T05:50:52;23.90;31.10
28087;DHT22;15392;48.912;8.380;2022-08-14T05:53:20;23.90;31.10
28087;DHT22;15392;48.912;8.380;2022-08-14T05:55:47;23.90;31.10
28087;DHT22;15392;48.912;8.380;2022-08-14T05:58:19;24.00;31.20
28087;DHT22;15392;48.912;8.380;2022-08-14T06:00:51;24.00;31.20
28087;DHT22;15392;48.912;8.380;2022-08-14T06:03:19;24.00;31.30
28087;DHT22;15392;48.912;8.380;2022-08-14T06:05:49;24.00;31.40
28087;DHT22;15392;48.912;8.380;2022-08-14T06:08:22;24.10;31.40
28087;DHT22;15392;48.912;8.380;2022-08-14T06:10:55;24.10;31.70
28087;DHT22;15392;48.912;8.380;2022-08-14T06:13:29;24.20;31.30
28087;DHT22;15392;48.912;8.380;2022-08-14T06:15:56;24.20;31.30
28087;DHT22;15392;48.912;8.380;2022-08-14T06:18:23;24.30;31.10
28087;DHT22;15392;48.912;8.380;2022-08-14T06:20:49;24.30;30.90
28087;DHT22;15392;48.912;8.380;2022-08-14T06:23:15;24.30;31.00
28087;DHT22;15392;48.912;8.380;2022-08-14T06:25:41;24.40;31.00
28087;DHT22;15392;48.912;8.380;2022-08-14T06:28:15;24.50;31.00
28087;DHT22;15392;48.912;8.380;2022-08-14T06:30:45;24.50;31.40
28087;DHT22;15392;48.912;8.380;2022-08-14T06:33:11;24.60;30.90
28087;DHT22;15392;48.912;8.380;2022-08-14T06:35:38;24.60;30.90
28087;DHT22;15392;48.912;8.380;2022-08-14T06:38:04;24.70;30.90
28087;DHT22;15392;48.912;8.380;2022-08-14T06:40:35;24.70;30.90
28087;DHT22;15392;48.912;8.380;2022-08-14T06:43:07;24.80;31.30
28087;DHT22;15392;48.912;8.380;2022-08-14T06:45:36;24.90;31.40
28087;DHT22;15392;48.912;8.380;2022-08-14T06:48:03;24.90;31.10
28087;DHT22;15392;48.912;8.380;2022-08-14T06:50:36;25.00;30.90
28087;DHT22;15392;48.912;8.380;2022-08-14T06:53:02;25.00;31.10
28087;DHT22;15392;48.912;8.380;2022-08-14T06:55:31;25.10;31.20
28087;DHT22;15392;48.912;8.380;2022-08-14T06:57:56;25.20;31.50
28087;DHT22;15392;48.912;8.380;2022-08-14T07:00:24;25.30;31.20
28087;DHT22;15392;48.912;8.380;2022-08-14T07:02:56;25.30;31.50
28087;DHT22;15392;48.912;8.380;2022-08-14T07:05:40;25.40;31.10
28087;DHT22;15392;48.912;8.380;2022-08-14T07:08:31;25.50;31.00
28087;DHT22;15392;48.912;8.380;2022-08-14T07:11:01;25.50;31.70
28087;DHT22;15392;48.912;8.380;2022-08-14T07:13:28;25.60;30.70
28087;DHT22;15392;48.912;8.380;2022-08-14T07:15:56;25.70;30.60
28087;DHT22;15392;48.912;8.380;2022-08-14T07:18:25;25.80;31.30
28087;DHT22;15392;48.912;8.380;2022-08-14T07:20:52;25.90;30.70
28087;DHT22;15392;48.912;8.380;2022-08-14T07:23:19;25.90;31.30
28087;DHT22;15392;48.912;8.380;2022-08-14T07:25:49;26.00;30.30
28087;DHT22;15392;48.912;8.380;2022-08-14T07:28:38;26.20;30.50
28087;DHT22;15392;48.912;8.380;2022-08-14T07:31:06;26.20;31.20
28087;DHT22;15392;48.912;8.380;2022-08-14T07:33:39;26.30;30.30
28087;DHT22;15392;48.912;8.380;2022-08-14T07:36:08;26.40;30.40
28087;DHT22;15392;48.912;8.380;2022-08-14T07:38:35;26.50;30.40
28087;DHT22;15392;48.912;8.380;2022-08-14T07:41:01;26.50;30.20
28087;DHT22;15392;48.912;8.380;2022-08-14T07:43:27;26.60;30.30
28087;DHT22;15392;48.912;8.380;2022-08-14T07:45:54;26.70;30.30
28087;DHT22;15392;48.912;8.380;2022-08-14T07:48:22;26.80;30.40
28087;DHT22;15392;48.912;8.380;2022-08-14T07:50:48;26.90;30.30
28087;DHT22;15392;48.912;8.380;2022-08-14T07:53:16;27.00;30.40
28087;DHT22;15392;48.912;8.380;2022-08-14T07:55:43;27.10;30.30
28087;DHT22;15392;48.912;8.380;2022-08-14T07:58:11;27.20;30.20
28087;DHT22;15392;48.912;8.380;2022-08-14T08:00:38;27.30;30.30
28087;DHT22;15392;48.912;8.380;2022-08-14T08:03:08;27.30;30.10
28087;DHT22;15392;48.912;8.380;2022-08-14T08:05:36;27.50;30.30
28087;DHT22;15392;48.912;8.380;2022-08-14T08:08:04;27.60;30.10
28087;DHT22;15392;48.912;8.380;2022-08-14T08:10:31;27.60;30.00
28087;DHT22;15392;48.912;8.380;2022-08-14T08:13:01;27.80;30.00
28087;DHT22;15392;48.912;8.380;2022-08-14T08:15:36;27.90;30.00
28087;DHT22;15392;48.912;8.380;2022-08-14T08:18:05;28.00;30.00
28087;DHT22;15392;48.912;8.380;2022-08-14T08:20:35;28.10;29.90
28087;DHT22;15392;48.912;8.380;2022-08-14T08:23:02;28.20;30.00
28087;DHT22;15392;48.912;8.380;2022-08-14T08:25:32;28.30;30.00
28087;DHT22;15392;48.912;8.380;2022-08-14T08:28:08;28.40;29.70
28087;DHT22;15392;48.912;8.380;2022-08-14T08:30:40;28.60;29.80
28087;DHT22;15392;48.912;8.380;2022-08-14T08:33:08;28.70;29.60
28087;DHT22;15392;48.912;8.380;2022-08-14T08:35:36;28.70;29.50
28087;DHT22;15392;48.912;8.380;2022-08-14T08:38:16;28.90;29.50
28087;DHT22;15392;48.912;8.380;2022-08-14T08:40:46;28.90;29.70
28087;DHT22;15392;48.912;8.380;2022-08-14T08:45:58;29.20;29.40
28087;DHT22;15392;48.912;8.380;2022-08-14T08:48:41;29.40;29.50
28087;DHT22;15392;48.912;8.380;2022-08-14T08:51:36;29.50;29.30
28087;DHT22;15392;48.912;8.380;2022-08-14T08:54:10;29.60;29.40
28087;DHT22;15392;48.912;8.380;2022-08-14T08:56:45;29.70;29.10
28087;DHT22;15392;48.912;8.380;2022-08-14T08:59:16;29.90;29.20
28087;DHT22;15392;48.912;8.380;2022-08-14T09:01:54;30.00;29.00
28087;DHT22;15392;48.912;8.380;2022-08-14T09:04:29;30.10;28.60
28087;DHT22;15392;48.912;8.380;2022-08-14T09:06:59;30.20;28.40
28087;DHT22;15392;48.912;8.380;2022-08-14T09:09:29;30.30;28.00
28087;DHT22;15392;48.912;8.380;2022-08-14T09:11:57;30.40;27.90
28087;DHT22;15392;48.912;8.380;2022-08-14T09:14:29;30.60;27.80
28087;DHT22;15392;48.912;8.380;2022-08-14T09:16:56;30.70;27.50
28087;DHT22;15392;48.912;8.380;2022-08-14T09:19:24;30.80;27.70
28087;DHT22;15392;48.912;8.380;2022-08-14T09:21:51;30.90;27.70
28087;DHT22;15392;48.912;8.380;2022-08-14T09:24:19;31.10;27.50
28087;DHT22;15392;48.912;8.380;2022-08-14T09:26:45;31.20;27.50
28087;DHT22;15392;48.912;8.380;2022-08-14T09:29:12;31.40;27.60
28087;DHT22;15392;48.912;8.380;2022-08-14T09:31:43;31.50;27.50
28087;DHT22;15392;48.912;8.380;2022-08-14T09:34:13;31.60;27.10
28087;DHT22;15392;48.912;8.380;2022-08-14T09:40:04;31.90;26.70
28087;DHT22;15392;48.912;8.380;2022-08-14T09:42:59;32.00;26.20
28087;DHT22;15392;48.912;8.380;2022-08-14T09:45:45;32.10;26.70
28087;DHT22;15392;48.912;8.380;2022-08-14T09:48:20;32.20;26.90
28087;DHT22;15392;48.912;8.380;2022-08-14T09:53:28;32.40;26.30
28087;DHT22;15392;48.912;8.380;2022-08-14T09:55:59;32.50;26.70
28087;DHT22;15392;48.912;8.380;2022-08-14T09:58:44;32.60;26.50
28087;DHT22;15392;48.912;8.380;2022-08-14T10:01:16;32.60;25.50
28087;DHT22;15392;48.912;8.380;2022-08-14T10:03:51;32.70;26.00
28087;DHT22;15392;48.912;8.380;2022-08-14T10:06:26;32.80;25.70
28087;DHT22;15392;48.912;8.380;2022-08-14T10:11:29;32.90;25.60
28087;DHT22;15392;48.912;8.380;2022-08-14T10:14:15;32.90;25.90
28087;DHT22;15392;48.912;8.380;2022-08-14T10:16:47;33.00;25.50
28087;DHT22;15392;48.912;8.380;2022-08-14T10:19:17;33.00;25.80
28087;DHT22;15392;48.912;8.380;2022-08-14T10:21:59;33.00;25.70
28087;DHT22;15392;48.912;8.380;2022-08-14T10:24:40;33.10;25.50
28087;DHT22;15392;48.912;8.380;2022-08-14T10:27:17;33.10;24.60
28087;DHT22;15392;48.912;8.380;2022-08-14T10:29:50;33.20;24.80
28087;DHT22;15392;48.912;8.380;2022-08-14T10:32:21;33.20;24.60
28087;DHT22;15392;48.912;8.380;2022-08-14T10:34:48;33.20;24.90
28087;DHT22;15392;48.912;8.380;2022-08-14T10:37:16;33.30;25.50
28087;DHT22;15392;48.912;8.380;2022-08-14T10:39:45;33.30;25.30
28087;DHT22;15392;48.912;8.380;2022-08-14T10:42:34;33.30;25.40
28087;DHT22;15392;48.912;8.380;2022-08-14T10:45:02;33.30;24.80
28087;DHT22;15392;48.912;8.380;2022-08-14T10:47:35;33.40;25.50
28087;DHT22;15392;48.912;8.380;2022-08-14T10:50:05;33.40;24.70
28087;DHT22;15392;48.912;8.380;2022-08-14T10:52:32;33.50;25.00
28087;DHT22;15392;48.912;8.380;2022-08-14T10:55:08;33.50;24.90
28087;DHT22;15392;48.912;8.380;2022-08-14T10:57:54;33.50;23.60
28087;DHT22;15392;48.912;8.380;2022-08-14T11:00:25;33.60;23.50
28087;DHT22;15392;48.912;8.380;2022-08-14T11:03:01;33.60;24.70
28087;DHT22;15392;48.912;8.380;2022-08-14T11:08:11;33.70;23.80
28087;DHT22;15392;48.912;8.380;2022-08-14T11:10:58;33.70;24.20
28087;DHT22;15392;48.912;8.380;2022-08-14T11:13:28;33.80;23.80
28087;DHT22;15392;48.912;8.380;2022-08-14T11:15:57;33.80;24.80
28087;DHT22;15392;48.912;8.380;2022-08-14T11:18:25;33.90;24.80
28087;DHT22;15392;48.912;8.380;2022-08-14T11:20:56;33.90;21.70
28087;DHT22;15392;48.912;8.380;2022-08-14T11:23:35;34.00;23.60
28087;DHT22;15392;48.912;8.380;2022-08-14T11:26:06;34.00;23.40
28087;DHT22;15392;48.912;8.380;2022-08-14T11:28:36;34.00;23.30
28087;DHT22;15392;48.912;8.380;2022-08-14T11:31:04;34.00;23.50
28087;DHT22;15392;48.912;8.380;2022-08-14T11:33:30;34.00;24.00
28087;DHT22;15392;48.912;8.380;2022-08-14T11:36:00;34.10;23.80
28087;DHT22;15392;48.912;8.380;2022-08-14T11:38:41;34.10;23.90
28087;DHT22;15392;48.912;8.380;2022-08-14T11:41:09;34.20;23.10
28087;DHT22;15392;48.912;8.380;2022-08-14T11:43:44;34.20;24.00
28087;DHT22;15392;48.912;8.380;2022-08-14T11:46:12;34.30;23.40
28087;DHT22;15392;48.912;8.380;2022-08-14T11:48:51;34.30;24.10
28087;DHT22;15392;48.912;8.380;2022-08-14T11:51:21;34.30;23.30
28087;DHT22;15392;48.912;8.380;2022-08-14T11:54:08;34.30;24.00
28087;DHT22;15392;48.912;8.380;2022-08-14T11:56:39;34.40;22.80
28087;DHT22;15392;48.912;8.380;2022-08-14T11:59:16;34.40;23.70
28087;DHT22;15392;48.912;8.380;2022-08-14T12:01:43;34.50;24.10
28087;DHT22;15392;48.912;8.380;2022-08-14T12:04:11;34.50;23.50
28087;DHT22;15392;48.912;8.380;2022-08-14T12:06:46;34.60;23.60
28087;DHT22;15392;48.912;8.380;2022-08-14T12:09:36;34.60;23.20
28087;DHT22;15392;48.912;8.380;2022-08-14T12:12:20;34.70;22.90
28087;DHT22;15392;48.912;8.380;2022-08-14T12:14:53;34.70;21.00
28087;DHT22;15392;48.912;8.380;2022-08-14T12:17:29;34.80;23.10
28087;DHT22;15392;48.912;8.380;2022-08-14T12:20:00;34.80;23.60
28087;DHT22;15392;48.912;8.380;2022-08-14T12:22:39;34.80;23.50
28087;DHT22;15392;48.912;8.380;2022-08-14T12:25:08;34.90;23.10
28087;DHT22;15392;48.912;8.380;2022-08-14T12:27:42;34.90;23.20
28087;DHT22;15392;48.912;8.380;2022-08-14T12:30:13;34.90;22.80
28087;DHT22;15392;48.912;8.380;2022-08-14T12:32:44;35.00;23.10
28087;DHT22;15392;48.912;8.380;2022-08-14T12:35:13;35.10;23.30
28087;DHT22;15392;48.912;8.380;2022-08-14T12:37:46;35.10;23.20
28087;DHT22;15392;48.912;8.380;2022-08-14T12:40:14;35.10;22.40
28087;DHT22;15392;48.912;8.380;2022-08-14T12:42:41;35.20;23.20
28087;DHT22;15392;48.912;8.380;2022-08-14T12:45:10;35.30;23.30
28087;DHT22;15392;48.912;8.380;2022-08-14T12:50:40;35.50;23.20
28087;DHT22;15392;48.912;8.380;2022-08-14T12:53:12;35.60;23.10
28087;DHT22;15392;48.912;8.380;2022-08-14T12:55:39;35.70;23.30
28087;DHT22;15392;48.912;8.380;2022-08-14T12:58:07;35.80;23.50
28087;DHT22;15392;48.912;8.380;2022-08-14T13:00:37;35.90;23.40
28087;DHT22;15392;48.912;8.380;2022-08-14T13:03:22;36.00;23.30
28087;DHT22;15392;48.912;8.380;2022-08-14T13:05:49;36.20;22.40
28087;DHT22;15392;48.912;8.380;2022-08-14T13:08:15;36.30;23.10
28087;DHT22;15392;48.912;8.380;2022-08-14T13:10:49;36.50;23.30
28087;DHT22;15392;48.912;8.380;2022-08-14T13:13:17;36.60;22.30
28087;DHT22;15392;48.912;8.380;2022-08-14T13:15:47;36.70;23.00
28087;DHT22;15392;48.912;8.380;2022-08-14T13:18:20;36.80;22.90
28087;DHT22;15392;48.912;8.380;2022-08-14T13:20:48;36.90;22.80
28087;DHT22;15392;48.912;8.380;2022-08-14T13:23:13;37.00;22.90
28087;DHT22;15392;48.912;8.380;2022-08-14T13:25:43;37.10;22.60
28087;DHT22;15392;48.912;8.380;2022-08-14T13:28:10;37.20;22.80
28087;DHT22;15392;48.912;8.380;2022-08-14T13:30:37;37.20;22.60
28087;DHT22;15392;48.912;8.380;2022-08-14T13:33:06;37.30;22.50
28087;DHT22;15392;48.912;8.380;2022-08-14T13:35:32;37.30;22.40
28087;DHT22;15392;48.912;8.380;2022-08-14T13:37:58;37.40;22.30
28087;DHT22;15392;48.912;8.380;2022-08-14T13:40:24;37.40;22.20
28087;DHT22;15392;48.912;8.380;2022-08-14T13:42:50;37.50;22.30
28087;DHT22;15392;48.912;8.380;2022-08-14T13:45:18;37.40;22.20
28087;DHT22;15392;48.912;8.380;2022-08-14T13:47:46;37.50;22.20
28087;DHT22;15392;48.912;8.380;2022-08-14T13:50:14;37.50;22.30
28087;DHT22;15392;48.912;8.380;2022-08-14T13:52:44;37.50;22.20
28087;DHT22;15392;48.912;8.380;2022-08-14T13:55:23;37.50;21.80
28087;DHT22;15392;48.912;8.380;2022-08-14T13:57:58;37.50;22.20
28087;DHT22;15392;48.912;8.380;2022-08-14T14:00:26;37.50;22.00
28087;DHT22;15392;48.912;8.380;2022-08-14T14:02:53;37.50;22.20
28087;DHT22;15392;48.912;8.380;2022-08-14T14:05:21;37.50;22.20
28087;DHT22;15392;48.912;8.380;2022-08-14T14:07:50;37.50;22.10
28087;DHT22;15392;48.912;8.380;2022-08-14T14:10:20;37.50;22.00
28087;DHT22;15392;48.912;8.380;2022-08-14T14:12:48;37.50;21.80
28087;DHT22;15392;48.912;8.380;2022-08-14T14:15:18;37.50;22.10
28087;DHT22;15392;48.912;8.380;2022-08-14T14:17:45;37.50;22.00
28087;DHT22;15392;48.912;8.380;2022-08-14T14:20:14;37.50;22.20
28087;DHT22;15392;48.912;8.380;2022-08-14T14:22:47;37.40;22.10
28087;DHT22;15392;48.912;8.380;2022-08-14T14:25:16;37.40;21.90
28087;DHT22;15392;48.912;8.380;2022-08-14T14:27:43;37.40;22.20
28087;DHT22;15392;48.912;8.380;2022-08-14T14:30:14;37.40;22.10
28087;DHT22;15392;48.912;8.380;2022-08-14T14:32:42;37.30;22.10
28087;DHT22;15392;48.912;8.380;2022-08-14T14:35:17;37.30;22.20
28087;DHT22;15392;48.912;8.380;2022-08-14T14:37:52;37.30;21.60
28087;DHT22;15392;48.912;8.380;2022-08-14T14:40:19;37.20;22.20
28087;DHT22;15392;48.912;8.380;2022-08-14T14:42:48;37.20;22.10
28087;DHT22;15392;48.912;8.380;2022-08-14T14:45:20;37.10;22.20
28087;DHT22;15392;48.912;8.380;2022-08-14T14:47:50;37.10;21.80
28087;DHT22;15392;48.912;8.380;2022-08-14T14:50:21;37.00;22.20
28087;DHT22;15392;48.912;8.380;2022-08-14T14:52:48;37.00;22.20
28087;DHT22;15392;48.912;8.380;2022-08-14T14:55:16;36.90;22.30
28087;DHT22;15392;48.912;8.380;2022-08-14T14:57:44;36.90;22.40
28087;DHT22;15392;48.912;8.380;2022-08-14T15:00:13;36.80;22.10
28087;DHT22;15392;48.912;8.380;2022-08-14T15:02:44;36.80;21.80
28087;DHT22;15392;48.912;8.380;2022-08-14T15:05:13;36.80;22.00
28087;DHT22;15392;48.912;8.380;2022-08-14T15:07:40;36.70;22.10
28087;DHT22;15392;48.912;8.380;2022-08-14T15:10:09;36.70;22.20
28087;DHT22;15392;48.912;8.380;2022-08-14T15:12:36;36.60;22.10
28087;DHT22;15392;48.912;8.380;2022-08-14T15:15:03;36.60;22.20
28087;DHT22;15392;48.912;8.380;2022-08-14T15:17:30;36.60;22.10
28087;DHT22;15392;48.912;8.380;2022-08-14T15:20:00;36.50;22.00
28087;DHT22;15392;48.912;8.380;2022-08-14T15:22:31;36.50;22.00
28087;DHT22;15392;48.912;8.380;2022-08-14T15:24:58;36.50;22.20
28087;DHT22;15392;48.912;8.380;2022-08-14T15:27:24;36.40;22.20
28087;DHT22;15392;48.912;8.380;2022-08-14T15:29:50;36.40;22.10
28087;DHT22;15392;48.912;8.380;2022-08-14T15:32:16;36.30;22.20
28087;DHT22;15392;48.912;8.380;2022-08-14T15:34:42;36.30;22.20
28087;DHT22;15392;48.912;8.380;2022-08-14T15:37:10;36.30;22.10
28087;DHT22;15392;48.912;8.380;2022-08-14T15:39:36;36.20;22.00
28087;DHT22;15392;48.912;8.380;2022-08-14T15:42:03;36.20;22.00
28087;DHT22;15392;48.912;8.380;2022-08-14T15:44:38;36.20;21.90
28087;DHT22;15392;48.912;8.380;2022-08-14T15:47:03;36.20;22.10
28087;DHT22;15392;48.912;8.380;2022-08-14T15:49:33;36.10;21.80
28087;DHT22;15392;48.912;8.380;2022-08-14T15:51:59;36.10;21.90
28087;DHT22;15392;48.912;8.380;2022-08-14T15:54:25;36.10;22.00
28087;DHT22;15392;48.912;8.380;2022-08-14T15:57:09;36.00;22.00
28087;DHT22;15392;48.912;8.380;2022-08-14T15:59:36;36.00;20.90
28087;DHT22;15392;48.912;8.380;2022-08-14T16:02:22;36.00;22.00
28087;DHT22;15392;48.912;8.380;2022-08-14T16:04:51;35.90;22.20
28087;DHT22;15392;48.912;8.380;2022-08-14T16:07:17;35.90;21.70